sensor_id;sensor_type;location;lat;lon;timestamp;P1;durP1;ratioP1;P2;durP2;ratioP2
47599;SDS011;33323;52.124;6.018;2023-08-12T00:01:10;11.43;;;6.72;;
47599;SDS011;33323;52.124;6.018;2023-08-12T00:03:37;13.30;;;6.90;;
47599;SDS011;33323;52.124;6.018;2023-08-12T00:06:04;10.15;;;7.78;;
47599;SDS011;33323;52.124;6.018;2023-08-12T00:08:31;10.50;;;6.88;;
47599;SDS011;33323;52.124;6.018;2023-08-12T00:10:58;11.50;;;6.40;;
47599;SDS011;33323;52.124;6.018;2023-08-12T00:13:25;12.13;;;7.35;;
47599;SDS011;33323;52.124;6.018;2023-08-12T00:15:53;13.90;;;6.72;;
47599;SDS011;33323;52.124;6.018;2023-08-12T00:18:20;10.43;;;6.40;;
47599;SDS011;33323;52.124;6.018;2023-08-12T00:20:48;11.98;;;7.38;;
47599;SDS011;33323;52.124;6.018;2023-08-12T00:23:15;11.43;;;6.80;;
47599;SDS011;33323;52.124;6.018;2023-08-12T00:25:42;15.63;;;8.57;;
47599;SDS011;33323;52.124;6.018;2023-08-12T00:28:09;12.75;;;7.35;;
47599;SDS011;33323;52.124;6.018;2023-08-12T00:30:36;12.05;;;7.55;;
47599;SDS011;33323;52.124;6.018;2023-08-12T00:33:03;14.15;;;7.15;;
47599;SDS011;33323;52.124;6.018;2023-08-12T00:35:31;13.32;;;7.88;;
47599;SDS011;33323;52.124;6.018;2023-08-12T00:37:58;15.18;;;8.18;;
47599;SDS011;33323;52.124;6.018;2023-08-12T00:40:26;15.05;;;8.00;;
47599;SDS011;33323;52.124;6.018;2023-08-12T00:42:53;13.27;;;7.68;;
47599;SDS011;33323;52.124;6.018;2023-08-12T00:45:20;13.50;;;7.00;;
47599;SDS011;33323;52.124;6.018;2023-08-12T00:47:47;14.18;;;6.97;;
47599;SDS011;33323;52.124;6.018;2023-08-12T00:50:14;12.07;;;7.72;;
47599;SDS011;33323;52.124;6.018;2023-08-12T00:52:42;15.60;;;7.22;;
47599;SDS011;33323;52.124;6.018;2023-08-12T00:55:12;12.05;;;6.90;;
47599;SDS011;33323;52.124;6.018;2023-08-12T00:57:39;16.73;;;7.90;;
47599;SDS011;33323;52.124;6.018;2023-08-12T01:00:06;13.07;;;7.15;;
47599;SDS011;33323;52.124;6.018;2023-08-12T01:02:35;7.65;;;6.05;;
47599;SDS011;33323;52.124;6.018;2023-08-12T01:05:03;11.55;;;7.47;;
47599;SDS011;33323;52.124;6.018;2023-08-12T01:07:31;13.75;;;8.27;;
47599;SDS011;33323;52.124;6.018;2023-08-12T01:09:59;13.85;;;7.93;;
47599;SDS011;33323;52.124;6.018;2023-08-12T01:12:27;9.90;;;6.60;;
47599;SDS011;33323;52.124;6.018;2023-08-12T01:17:36;10.70;;;6.93;;
47599;SDS011;33323;52.124;6.018;2023-08-12T01:20:05;13.63;;;7.07;;
47599;SDS011;33323;52.124;6.018;2023-08-12T01:22:38;14.95;;;7.57;;
47599;SDS011;33323;52.124;6.018;2023-08-12T01:25:07;11.68;;;7.97;;
47599;SDS011;33323;52.124;6.018;2023-08-12T01:27:35;9.57;;;7.85;;
47599;SDS011;33323;52.124;6.018;2023-08-12T01:30:03;10.52;;;7.55;;
47599;SDS011;33323;52.124;6.018;2023-08-12T01:35:20;10.20;;;6.72;;
47599;SDS011;33323;52.124;6.018;2023-08-12T01:38:08;13.30;;;7.05;;
47599;SDS011;33323;52.124;6.018;2023-08-12T01:40:38;9.98;;;7.72;;
47599;SDS011;33323;52.124;6.018;2023-08-12T01:43:07;12.90;;;7.82;;
47599;SDS011;33323;52.124;6.018;2023-08-12T01:45:35;11.23;;;7.57;;
47599;SDS011;33323;52.124;6.018;2023-08-12T01:48:02;13.57;;;7.78;;
47599;SDS011;33323;52.124;6.018;2023-08-12T01:50:30;10.70;;;7.07;;
47599;SDS011;33323;52.124;6.018;2023-08-12T01:52:57;12.48;;;8.75;;
47599;SDS011;33323;52.124;6.018;2023-08-12T01:55:25;13.80;;;8.70;;
47599;SDS011;33323;52.124;6.018;2023-08-12T01:57:52;18.77;;;9.18;;
47599;SDS011;33323;52.124;6.018;2023-08-12T02:00:19;16.17;;;8.93;;
47599;SDS011;33323;52.124;6.018;2023-08-12T02:02:46;13.32;;;7.78;;
47599;SDS011;33323;52.124;6.018;2023-08-12T02:05:14;14.90;;;8.85;;
47599;SDS011;33323;52.124;6.018;2023-08-12T02:07:41;15.20;;;8.68;;
47599;SDS011;33323;52.124;6.018;2023-08-12T02:10:09;18.35;;;9.95;;
47599;SDS011;33323;52.124;6.018;2023-08-12T02:12:36;12.50;;;7.57;;
47599;SDS011;33323;52.124;6.018;2023-08-12T02:15:03;11.32;;;7.57;;
47599;SDS011;33323;52.124;6.018;2023-08-12T02:17:31;13.00;;;8.80;;
47599;SDS011;33323;52.124;6.018;2023-08-12T02:19:58;13.00;;;7.82;;
47599;SDS011;33323;52.124;6.018;2023-08-12T02:22:25;15.35;;;7.70;;
47599;SDS011;33323;52.124;6.018;2023-08-12T02:24:52;14.52;;;8.48;;
47599;SDS011;33323;52.124;6.018;2023-08-12T02:27:20;11.00;;;7.70;;
47599;SDS011;33323;52.124;6.018;2023-08-12T02:29:47;10.30;;;7.53;;
47599;SDS011;33323;52.124;6.018;2023-08-12T02:32:14;11.20;;;7.25;;
47599;SDS011;33323;52.124;6.018;2023-08-12T02:34:41;15.38;;;8.25;;
47599;SDS011;33323;52.124;6.018;2023-08-12T02:37:09;15.60;;;10.07;;
47599;SDS011;33323;52.124;6.018;2023-08-12T02:39:37;19.15;;;11.02;;
47599;SDS011;33323;52.124;6.018;2023-08-12T02:42:04;15.10;;;11.45;;
47599;SDS011;33323;52.124;6.018;2023-08-12T02:44:31;15.50;;;10.10;;
47599;SDS011;33323;52.124;6.018;2023-08-12T02:46:58;16.70;;;10.50;;
47599;SDS011;33323;52.124;6.018;2023-08-12T02:49:25;14.63;;;10.50;;
47599;SDS011;33323;52.124;6.018;2023-08-12T02:51:54;22.02;;;12.50;;
47599;SDS011;33323;52.124;6.018;2023-08-12T02:54:21;19.58;;;13.25;;
47599;SDS011;33323;52.124;6.018;2023-08-12T02:56:49;19.70;;;12.32;;
47599;SDS011;33323;52.124;6.018;2023-08-12T02:59:16;22.77;;;14.27;;
47599;SDS011;33323;52.124;6.018;2023-08-12T03:01:43;20.48;;;14.25;;
47599;SDS011;33323;52.124;6.018;2023-08-12T03:04:11;28.70;;;14.63;;
47599;SDS011;33323;52.124;6.018;2023-08-12T03:06:38;21.48;;;14.95;;
47599;SDS011;33323;52.124;6.018;2023-08-12T03:09:05;25.52;;;14.55;;
47599;SDS011;33323;52.124;6.018;2023-08-12T03:11:33;23.58;;;14.93;;
47599;SDS011;33323;52.124;6.018;2023-08-12T03:14:03;24.67;;;16.08;;
47599;SDS011;33323;52.124;6.018;2023-08-12T03:16:30;24.55;;;15.65;;
47599;SDS011;33323;52.124;6.018;2023-08-12T03:18:57;27.40;;;15.80;;
47599;SDS011;33323;52.124;6.018;2023-08-12T03:21:24;23.27;;;15.02;;
47599;SDS011;33323;52.124;6.018;2023-08-12T03:23:51;27.23;;;15.63;;
47599;SDS011;33323;52.124;6.018;2023-08-12T03:26:20;24.33;;;16.48;;
47599;SDS011;33323;52.124;6.018;2023-08-12T03:28:47;25.70;;;16.42;;
47599;SDS011;33323;52.124;6.018;2023-08-12T03:31:17;27.10;;;15.82;;
47599;SDS011;33323;52.124;6.018;2023-08-12T03:33:44;23.65;;;15.35;;
47599;SDS011;33323;52.124;6.018;2023-08-12T03:36:13;28.15;;;17.88;;
47599;SDS011;33323;52.124;6.018;2023-08-12T03:38:40;28.98;;;18.13;;
47599;SDS011;33323;52.124;6.018;2023-08-12T03:41:12;24.00;;;16.02;;
47599;SDS011;33323;52.124;6.018;2023-08-12T03:43:40;25.52;;;17.23;;
47599;SDS011;33323;52.124;6.018;2023-08-12T03:46:08;26.63;;;17.55;;
47599;SDS011;33323;52.124;6.018;2023-08-12T03:48:36;27.52;;;17.52;;
47599;SDS011;33323;52.124;6.018;2023-08-12T03:51:03;30.17;;;18.55;;
47599;SDS011;33323;52.124;6.018;2023-08-12T03:53:30;26.83;;;17.35;;
47599;SDS011;33323;52.124;6.018;2023-08-12T03:55:57;26.65;;;16.67;;
47599;SDS011;33323;52.124;6.018;2023-08-12T03:58:25;29.75;;;17.08;;
47599;SDS011;33323;52.124;6.018;2023-08-12T04:00:52;25.42;;;17.30;;
47599;SDS011;33323;52.124;6.018;2023-08-12T04:03:20;26.45;;;17.35;;
47599;SDS011;33323;52.124;6.018;2023-08-12T04:05:56;30.33;;;17.95;;
47599;SDS011;33323;52.124;6.018;2023-08-12T04:08:23;27.10;;;17.58;;
47599;SDS011;33323;52.124;6.018;2023-08-12T04:10:52;30.10;;;17.85;;
47599;SDS011;33323;52.124;6.018;2023-08-12T04:13:19;28.02;;;16.63;;
47599;SDS011;33323;52.124;6.018;2023-08-12T04:15:49;30.17;;;18.08;;
47599;SDS011;33323;52.124;6.018;2023-08-12T04:18:19;28.05;;;17.20;;
47599;SDS011;33323;52.124;6.018;2023-08-12T04:20:49;23.83;;;15.57;;
47599;SDS011;33323;52.124;6.018;2023-08-12T04:23:18;28.75;;;17.77;;
47599;SDS011;33323;52.124;6.018;2023-08-12T04:25:46;24.75;;;16.73;;
47599;SDS011;33323;52.124;6.018;2023-08-12T04:28:14;27.50;;;17.40;;
47599;SDS011;33323;52.124;6.018;2023-08-12T04:30:42;21.98;;;15.43;;
47599;SDS011;33323;52.124;6.018;2023-08-12T04:33:15;24.02;;;15.18;;
47599;SDS011;33323;52.124;6.018;2023-08-12T04:35:44;31.88;;;17.23;;
47599;SDS011;33323;52.124;6.018;2023-08-12T04:38:12;34.20;;;18.35;;
47599;SDS011;33323;52.124;6.018;2023-08-12T04:40:41;26.33;;;16.80;;
47599;SDS011;33323;52.124;6.018;2023-08-12T04:43:09;26.15;;;17.98;;
47599;SDS011;33323;52.124;6.018;2023-08-12T04:45:36;30.13;;;16.55;;
47599;SDS011;33323;52.124;6.018;2023-08-12T04:48:05;25.30;;;17.48;;
47599;SDS011;33323;52.124;6.018;2023-08-12T04:50:35;25.95;;;18.10;;
47599;SDS011;33323;52.124;6.018;2023-08-12T04:53:02;32.63;;;18.42;;
47599;SDS011;33323;52.124;6.018;2023-08-12T04:55:30;31.13;;;18.15;;
47599;SDS011;33323;52.124;6.018;2023-08-12T04:57:59;24.30;;;15.73;;
47599;SDS011;33323;52.124;6.018;2023-08-12T05:00:26;24.23;;;17.30;;
47599;SDS011;33323;52.124;6.018;2023-08-12T05:02:57;29.38;;;18.40;;
47599;SDS011;33323;52.124;6.018;2023-08-12T05:05:25;27.88;;;17.45;;
47599;SDS011;33323;52.124;6.018;2023-08-12T05:07:53;34.13;;;19.63;;
47599;SDS011;33323;52.124;6.018;2023-08-12T05:10:21;29.65;;;18.88;;
47599;SDS011;33323;52.124;6.018;2023-08-12T05:12:49;26.70;;;18.25;;
47599;SDS011;33323;52.124;6.018;2023-08-12T05:15:18;26.80;;;17.40;;
47599;SDS011;33323;52.124;6.018;2023-08-12T05:17:47;25.17;;;16.83;;
47599;SDS011;33323;52.124;6.018;2023-08-12T05:20:18;25.83;;;16.95;;
47599;SDS011;33323;52.124;6.018;2023-08-12T05:22:46;24.48;;;16.77;;
47599;SDS011;33323;52.124;6.018;2023-08-12T05:25:13;24.90;;;16.20;;
47599;SDS011;33323;52.124;6.018;2023-08-12T05:27:40;18.80;;;15.02;;
47599;SDS011;33323;52.124;6.018;2023-08-12T05:30:07;20.08;;;15.07;;
47599;SDS011;33323;52.124;6.018;2023-08-12T05:32:35;25.33;;;15.43;;
47599;SDS011;33323;52.124;6.018;2023-08-12T05:35:02;22.67;;;15.45;;
47599;SDS011;33323;52.124;6.018;2023-08-12T05:37:30;18.40;;;13.32;;
47599;SDS011;33323;52.124;6.018;2023-08-12T05:39:57;25.52;;;14.38;;
47599;SDS011;33323;52.124;6.018;2023-08-12T05:42:24;19.08;;;14.50;;
47599;SDS011;33323;52.124;6.018;2023-08-12T05:44:51;20.80;;;14.00;;
47599;SDS011;33323;52.124;6.018;2023-08-12T05:47:18;26.00;;;15.57;;
47599;SDS011;33323;52.124;6.018;2023-08-12T05:49:45;22.45;;;14.90;;
47599;SDS011;33323;52.124;6.018;2023-08-12T05:52:12;22.45;;;14.13;;
47599;SDS011;33323;52.124;6.018;2023-08-12T05:54:39;23.90;;;14.05;;
47599;SDS011;33323;52.124;6.018;2023-08-12T05:57:06;22.15;;;14.18;;
47599;SDS011;33323;52.124;6.018;2023-08-12T05:59:33;27.83;;;15.25;;
47599;SDS011;33323;52.124;6.018;2023-08-12T06:02:00;25.08;;;15.15;;
47599;SDS011;33323;52.124;6.018;2023-08-12T06:04:27;22.95;;;15.02;;
47599;SDS011;33323;52.124;6.018;2023-08-12T06:06:54;22.17;;;15.02;;
47599;SDS011;33323;52.124;6.018;2023-08-12T06:09:21;23.63;;;12.90;;
47599;SDS011;33323;52.124;6.018;2023-08-12T06:11:48;18.25;;;12.32;;
47599;SDS011;33323;52.124;6.018;2023-08-12T06:14:15;18.08;;;12.50;;
47599;SDS011;33323;52.124;6.018;2023-08-12T06:16:42;21.60;;;13.13;;
47599;SDS011;33323;52.124;6.018;2023-08-12T06:19:10;20.52;;;15.25;;
47599;SDS011;33323;52.124;6.018;2023-08-12T06:21:37;18.88;;;13.70;;
47599;SDS011;33323;52.124;6.018;2023-08-12T06:24:04;20.70;;;12.73;;
47599;SDS011;33323;52.124;6.018;2023-08-12T06:26:32;17.45;;;12.20;;
47599;SDS011;33323;52.124;6.018;2023-08-12T06:28:59;21.63;;;13.45;;
47599;SDS011;33323;52.124;6.018;2023-08-12T06:31:30;20.55;;;12.70;;
47599;SDS011;33323;52.124;6.018;2023-08-12T06:33:57;16.67;;;11.05;;
47599;SDS011;33323;52.124;6.018;2023-08-12T06:36:24;20.52;;;10.98;;
47599;SDS011;33323;52.124;6.018;2023-08-12T06:38:51;19.58;;;10.35;;
47599;SDS011;33323;52.124;6.018;2023-08-12T06:41:18;15.05;;;9.15;;
47599;SDS011;33323;52.124;6.018;2023-08-12T06:43:45;10.63;;;8.23;;
47599;SDS011;33323;52.124;6.018;2023-08-12T06:46:12;15.27;;;7.75;;
47599;SDS011;33323;52.124;6.018;2023-08-12T06:48:39;14.23;;;7.97;;
47599;SDS011;33323;52.124;6.018;2023-08-12T06:51:06;13.40;;;8.10;;
47599;SDS011;33323;52.124;6.018;2023-08-12T06:53:37;10.55;;;7.18;;
47599;SDS011;33323;52.124;6.018;2023-08-12T06:56:05;11.35;;;7.25;;
47599;SDS011;33323;52.124;6.018;2023-08-12T06:58:32;11.80;;;5.80;;
47599;SDS011;33323;52.124;6.018;2023-08-12T07:00:59;10.13;;;6.88;;
47599;SDS011;33323;52.124;6.018;2023-08-12T07:03:26;8.88;;;6.55;;
47599;SDS011;33323;52.124;6.018;2023-08-12T07:05:54;8.15;;;5.70;;
47599;SDS011;33323;52.124;6.018;2023-08-12T07:08:21;8.60;;;5.75;;
47599;SDS011;33323;52.124;6.018;2023-08-12T07:10:48;8.45;;;6.05;;
47599;SDS011;33323;52.124;6.018;2023-08-12T07:13:15;12.93;;;5.45;;
47599;SDS011;33323;52.124;6.018;2023-08-12T07:15:42;7.43;;;4.68;;
47599;SDS011;33323;52.124;6.018;2023-08-12T07:18:09;4.72;;;4.22;;
47599;SDS011;33323;52.124;6.018;2023-08-12T07:20:37;6.40;;;4.00;;
47599;SDS011;33323;52.124;6.018;2023-08-12T07:23:04;7.28;;;3.78;;
47599;SDS011;33323;52.124;6.018;2023-08-12T07:25:31;4.53;;;3.17;;
47599;SDS011;33323;52.124;6.018;2023-08-12T07:27:58;6.43;;;3.53;;
47599;SDS011;33323;52.124;6.018;2023-08-12T07:30:25;5.93;;;3.17;;
47599;SDS011;33323;52.124;6.018;2023-08-12T07:32:54;5.93;;;4.00;;
47599;SDS011;33323;52.124;6.018;2023-08-12T07:35:21;7.28;;;4.05;;
47599;SDS011;33323;52.124;6.018;2023-08-12T07:37:48;4.78;;;2.80;;
47599;SDS011;33323;52.124;6.018;2023-08-12T07:40:15;4.22;;;3.28;;
47599;SDS011;33323;52.124;6.018;2023-08-12T07:42:42;6.05;;;3.90;;
47599;SDS011;33323;52.124;6.018;2023-08-12T07:45:09;6.05;;;3.65;;
47599;SDS011;33323;52.124;6.018;2023-08-12T07:47:37;7.22;;;4.45;;
47599;SDS011;33323;52.124;6.018;2023-08-12T07:50:06;7.60;;;3.72;;
47599;SDS011;33323;52.124;6.018;2023-08-12T07:52:33;4.57;;;3.53;;
47599;SDS011;33323;52.124;6.018;2023-08-12T07:55:01;6.45;;;3.10;;
47599;SDS011;33323;52.124;6.018;2023-08-12T07:57:28;6.45;;;4.50;;
47599;SDS011;33323;52.124;6.018;2023-08-12T07:59:55;7.15;;;3.45;;
47599;SDS011;33323;52.124;6.018;2023-08-12T08:02:22;6.07;;;4.20;;
47599;SDS011;33323;52.124;6.018;2023-08-12T08:04:49;6.82;;;4.07;;
47599;SDS011;33323;52.124;6.018;2023-08-12T08:07:17;7.93;;;3.88;;
47599;SDS011;33323;52.124;6.018;2023-08-12T08:09:44;5.97;;;3.90;;
47599;SDS011;33323;52.124;6.018;2023-08-12T08:12:11;9.02;;;3.80;;
47599;SDS011;33323;52.124;6.018;2023-08-12T08:14:39;7.80;;;4.15;;
47599;SDS011;33323;52.124;6.018;2023-08-12T08:17:06;6.05;;;3.47;;
47599;SDS011;33323;52.124;6.018;2023-08-12T08:19:34;5.35;;;3.20;;
47599;SDS011;33323;52.124;6.018;2023-08-12T08:22:01;5.70;;;3.47;;
47599;SDS011;33323;52.124;6.018;2023-08-12T08:24:29;7.53;;;4.95;;
47599;SDS011;33323;52.124;6.018;2023-08-12T08:26:56;4.47;;;3.47;;
47599;SDS011;33323;52.124;6.018;2023-08-12T08:29:23;4.88;;;3.70;;
47599;SDS011;33323;52.124;6.018;2023-08-12T08:31:51;4.05;;;2.83;;
47599;SDS011;33323;52.124;6.018;2023-08-12T08:34:18;3.83;;;2.75;;
47599;SDS011;33323;52.124;6.018;2023-08-12T08:36:45;3.63;;;1.95;;
47599;SDS011;33323;52.124;6.018;2023-08-12T08:39:12;3.00;;;2.28;;
47599;SDS011;33323;52.124;6.018;2023-08-12T08:41:39;1.65;;;1.55;;
47599;SDS011;33323;52.124;6.018;2023-08-12T08:44:07;2.50;;;1.65;;
47599;SDS011;33323;52.124;6.018;2023-08-12T08:46:35;2.30;;;1.60;;
47599;SDS011;33323;52.124;6.018;2023-08-12T08:49:02;3.10;;;1.40;;
47599;SDS011;33323;52.124;6.018;2023-08-12T08:51:32;2.13;;;1.60;;
47599;SDS011;33323;52.124;6.018;2023-08-12T08:53:59;2.40;;;1.15;;
47599;SDS011;33323;52.124;6.018;2023-08-12T08:56:31;6.60;;;2.67;;
47599;SDS011;33323;52.124;6.018;2023-08-12T08:59:02;1.58;;;1.23;;
47599;SDS011;33323;52.124;6.018;2023-08-12T09:01:29;2.75;;;1.30;;
47599;SDS011;33323;52.124;6.018;2023-08-12T09:03:57;1.73;;;1.25;;
47599;SDS011;33323;52.124;6.018;2023-08-12T09:06:25;4.80;;;1.50;;
47599;SDS011;33323;52.124;6.018;2023-08-12T09:08:53;2.17;;;1.40;;
47599;SDS011;33323;52.124;6.018;2023-08-12T09:11:21;1.52;;;1.27;;
47599;SDS011;33323;52.124;6.018;2023-08-12T09:13:48;2.63;;;1.25;;
47599;SDS011;33323;52.124;6.018;2023-08-12T09:16:15;1.48;;;1.27;;
47599;SDS011;33323;52.124;6.018;2023-08-12T09:18:42;1.80;;;1.60;;
47599;SDS011;33323;52.124;6.018;2023-08-12T09:21:10;3.70;;;1.30;;
47599;SDS011;33323;52.124;6.018;2023-08-12T09:23:38;2.80;;;1.08;;
47599;SDS011;33323;52.124;6.018;2023-08-12T09:26:13;2.33;;;0.95;;
47599;SDS011;33323;52.124;6.018;2023-08-12T09:28:45;1.27;;;1.02;;
47599;SDS011;33323;52.124;6.018;2023-08-12T09:31:25;1.40;;;1.05;;
47599;SDS011;33323;52.124;6.018;2023-08-12T09:33:58;2.05;;;1.00;;
47599;SDS011;33323;52.124;6.018;2023-08-12T09:36:30;0.90;;;0.68;;
47599;SDS011;33323;52.124;6.018;2023-08-12T09:38:57;2.28;;;0.80;;
47599;SDS011;33323;52.124;6.018;2023-08-12T09:41:26;0.88;;;0.70;;
47599;SDS011;33323;52.124;6.018;2023-08-12T09:43:55;1.35;;;0.40;;
47599;SDS011;33323;52.124;6.018;2023-08-12T09:46:23;0.80;;;0.38;;
47599;SDS011;33323;52.124;6.018;2023-08-12T09:48:50;0.50;;;0.40;;
47599;SDS011;33323;52.124;6.018;2023-08-12T09:51:21;0.30;;;0.22;;
47599;SDS011;33323;52.124;6.018;2023-08-12T09:53:49;0.30;;;0.20;;
47599;SDS011;33323;52.124;6.018;2023-08-12T09:56:19;0.20;;;0.20;;
47599;SDS011;33323;52.124;6.018;2023-08-12T09:58:50;0.30;;;0.30;;
47599;SDS011;33323;52.124;6.018;2023-08-12T10:01:19;0.65;;;0.20;;
47599;SDS011;33323;52.124;6.018;2023-08-12T10:03:50;0.20;;;0.20;;
47599;SDS011;33323;52.124;6.018;2023-08-12T10:06:18;0.15;;;0.10;;
47599;SDS011;33323;52.124;6.018;2023-08-12T10:08:46;0.40;;;0.20;;
47599;SDS011;33323;52.124;6.018;2023-08-12T10:11:14;0.20;;;0.20;;
47599;SDS011;33323;52.124;6.018;2023-08-12T10:13:41;0.20;;;0.20;;
47599;SDS011;33323;52.124;6.018;2023-08-12T10:16:10;0.17;;;0.17;;
47599;SDS011;33323;52.124;6.018;2023-08-12T10:18:38;0.10;;;0.10;;
47599;SDS011;33323;52.124;6.018;2023-08-12T10:21:10;0.28;;;0.10;;
47599;SDS011;33323;52.124;6.018;2023-08-12T10:23:38;0.20;;;0.20;;
47599;SDS011;33323;52.124;6.018;2023-08-12T10:26:11;0.20;;;0.20;;
47599;SDS011;33323;52.124;6.018;2023-08-12T10:28:39;0.25;;;0.20;;
47599;SDS011;33323;52.124;6.018;2023-08-12T10:31:06;0.25;;;0.20;;
47599;SDS011;33323;52.124;6.018;2023-08-12T10:33:35;0.28;;;0.20;;
47599;SDS011;33323;52.124;6.018;2023-08-12T10:36:06;1.35;;;0.25;;
47599;SDS011;33323;52.124;6.018;2023-08-12T10:38:34;0.20;;;0.20;;
47599;SDS011;33323;52.124;6.018;2023-08-12T10:41:18;0.20;;;0.20;;
47599;SDS011;33323;52.124;6.018;2023-08-12T10:49:12;0.68;;;0.50;;
47599;SDS011;33323;52.124;6.018;2023-08-12T10:54:15;2.72;;;1.05;;
47599;SDS011;33323;52.124;6.018;2023-08-12T10:59:48;1.63;;;0.90;;
47599;SDS011;33323;52.124;6.018;2023-08-12T11:05:11;2.20;;;1.50;;
47599;SDS011;33323;52.124;6.018;2023-08-12T11:07:47;4.03;;;1.83;;
47599;SDS011;33323;52.124;6.018;2023-08-12T11:10:28;2.83;;;1.40;;
47599;SDS011;33323;52.124;6.018;2023-08-12T11:13:00;2.83;;;1.08;;
47599;SDS011;33323;52.124;6.018;2023-08-12T11:18:04;2.63;;;0.70;;
47599;SDS011;33323;52.124;6.018;2023-08-12T11:20:34;3.40;;;1.13;;
47599;SDS011;33323;52.124;6.018;2023-08-12T11:23:03;1.67;;;0.60;;
47599;SDS011;33323;52.124;6.018;2023-08-12T11:25:32;2.83;;;0.80;;
47599;SDS011;33323;52.124;6.018;2023-08-12T11:28:01;3.30;;;0.70;;
47599;SDS011;33323;52.124;6.018;2023-08-12T11:30:28;3.97;;;0.98;;
47599;SDS011;33323;52.124;6.018;2023-08-12T11:32:59;4.35;;;1.17;;
47599;SDS011;33323;52.124;6.018;2023-08-12T11:35:28;2.28;;;0.90;;
47599;SDS011;33323;52.124;6.018;2023-08-12T11:37:56;4.28;;;1.42;;
47599;SDS011;33323;52.124;6.018;2023-08-12T11:40:25;4.75;;;1.40;;
47599;SDS011;33323;52.124;6.018;2023-08-12T11:42:54;3.10;;;1.00;;
47599;SDS011;33323;52.124;6.018;2023-08-12T11:45:25;2.85;;;1.15;;
47599;SDS011;33323;52.124;6.018;2023-08-12T11:47:54;4.25;;;0.98;;
47599;SDS011;33323;52.124;6.018;2023-08-12T11:50:25;6.55;;;1.30;;
47599;SDS011;33323;52.124;6.018;2023-08-12T11:52:55;1.70;;;0.80;;
47599;SDS011;33323;52.124;6.018;2023-08-12T11:55:23;4.53;;;1.60;;
47599;SDS011;33323;52.124;6.018;2023-08-12T11:57:51;2.65;;;0.75;;
47599;SDS011;33323;52.124;6.018;2023-08-12T12:00:19;4.55;;;0.98;;
47599;SDS011;33323;52.124;6.018;2023-08-12T12:02:51;2.85;;;1.55;;
47599;SDS011;33323;52.124;6.018;2023-08-12T12:05:22;2.63;;;0.88;;
47599;SDS011;33323;52.124;6.018;2023-08-12T12:07:53;3.53;;;1.23;;
47599;SDS011;33323;52.124;6.018;2023-08-12T12:12:58;5.57;;;1.58;;
47599;SDS011;33323;52.124;6.018;2023-08-12T12:15:26;3.65;;;0.77;;
47599;SDS011;33323;52.124;6.018;2023-08-12T12:17:53;5.47;;;0.90;;
47599;SDS011;33323;52.124;6.018;2023-08-12T12:20:21;5.68;;;1.25;;
47599;SDS011;33323;52.124;6.018;2023-08-12T12:22:48;3.95;;;1.20;;
47599;SDS011;33323;52.124;6.018;2023-08-12T12:25:16;2.08;;;0.88;;
47599;SDS011;33323;52.124;6.018;2023-08-12T12:27:47;5.50;;;2.08;;
47599;SDS011;33323;52.124;6.018;2023-08-12T12:30:14;2.72;;;1.00;;
47599;SDS011;33323;52.124;6.018;2023-08-12T12:32:43;10.02;;;1.33;;
47599;SDS011;33323;52.124;6.018;2023-08-12T12:35:11;3.80;;;1.60;;
47599;SDS011;33323;52.124;6.018;2023-08-12T12:37:38;3.90;;;0.80;;
47599;SDS011;33323;52.124;6.018;2023-08-12T12:40:05;4.50;;;1.10;;
47599;SDS011;33323;52.124;6.018;2023-08-12T12:42:33;5.30;;;1.30;;
47599;SDS011;33323;52.124;6.018;2023-08-12T12:45:01;6.03;;;1.15;;
47599;SDS011;33323;52.124;6.018;2023-08-12T12:47:28;3.00;;;1.05;;
47599;SDS011;33323;52.124;6.018;2023-08-12T12:49:56;3.88;;;1.02;;
47599;SDS011;33323;52.124;6.018;2023-08-12T12:52:23;3.17;;;0.98;;
47599;SDS011;33323;52.124;6.018;2023-08-12T12:54:50;2.92;;;1.00;;
47599;SDS011;33323;52.124;6.018;2023-08-12T12:57:17;4.47;;;0.90;;
47599;SDS011;33323;52.124;6.018;2023-08-12T12:59:44;4.80;;;1.00;;
47599;SDS011;33323;52.124;6.018;2023-08-12T13:02:11;2.08;;;0.73;;
47599;SDS011;33323;52.124;6.018;2023-08-12T13:04:38;5.53;;;2.00;;
47599;SDS011;33323;52.124;6.018;2023-08-12T13:07:05;2.13;;;1.02;;
47599;SDS011;33323;52.124;6.018;2023-08-12T13:09:32;3.58;;;0.98;;
47599;SDS011;33323;52.124;6.018;2023-08-12T13:12:00;4.40;;;0.90;;
47599;SDS011;33323;52.124;6.018;2023-08-12T13:14:27;4.45;;;0.93;;
47599;SDS011;33323;52.124;6.018;2023-08-12T13:16:56;8.05;;;2.45;;
47599;SDS011;33323;52.124;6.018;2023-08-12T13:19:23;4.68;;;1.05;;
47599;SDS011;33323;52.124;6.018;2023-08-12T13:21:50;4.32;;;1.20;;
47599;SDS011;33323;52.124;6.018;2023-08-12T13:24:17;3.67;;;1.67;;
47599;SDS011;33323;52.124;6.018;2023-08-12T13:26:44;6.55;;;2.05;;
47599;SDS011;33323;52.124;6.018;2023-08-12T13:29:11;4.07;;;1.65;;
47599;SDS011;33323;52.124;6.018;2023-08-12T13:31:39;5.65;;;1.10;;
47599;SDS011;33323;52.124;6.018;2023-08-12T13:34:07;3.53;;;1.42;;
47599;SDS011;33323;52.124;6.018;2023-08-12T13:36:34;3.33;;;1.00;;
47599;SDS011;33323;52.124;6.018;2023-08-12T13:39:01;3.38;;;1.17;;
47599;SDS011;33323;52.124;6.018;2023-08-12T13:41:28;6.28;;;2.17;;
47599;SDS011;33323;52.124;6.018;2023-08-12T13:43:55;5.50;;;1.45;;
47599;SDS011;33323;52.124;6.018;2023-08-12T13:46:22;2.90;;;0.88;;
47599;SDS011;33323;52.124;6.018;2023-08-12T13:48:49;5.55;;;0.90;;
47599;SDS011;33323;52.124;6.018;2023-08-12T13:51:16;3.53;;;0.70;;
47599;SDS011;33323;52.124;6.018;2023-08-12T13:53:43;3.88;;;1.02;;
47599;SDS011;33323;52.124;6.018;2023-08-12T13:56:10;2.78;;;0.55;;
47599;SDS011;33323;52.124;6.018;2023-08-12T13:58:37;2.78;;;1.13;;
47599;SDS011;33323;52.124;6.018;2023-08-12T14:01:05;7.05;;;1.13;;
47599;SDS011;33323;52.124;6.018;2023-08-12T14:03:32;3.92;;;0.90;;
47599;SDS011;33323;52.124;6.018;2023-08-12T14:05:59;3.92;;;1.05;;
47599;SDS011;33323;52.124;6.018;2023-08-12T14:08:27;3.00;;;0.80;;
47599;SDS011;33323;52.124;6.018;2023-08-12T14:10:54;4.80;;;0.80;;
47599;SDS011;33323;52.124;6.018;2023-08-12T14:13:21;4.68;;;1.25;;
47599;SDS011;33323;52.124;6.018;2023-08-12T14:15:48;6.13;;;1.20;;
47599;SDS011;33323;52.124;6.018;2023-08-12T14:18:15;4.85;;;1.00;;
47599;SDS011;33323;52.124;6.018;2023-08-12T14:20:42;6.95;;;1.48;;
47599;SDS011;33323;52.124;6.018;2023-08-12T14:23:09;4.57;;;0.88;;
47599;SDS011;33323;52.124;6.018;2023-08-12T14:25:36;3.47;;;0.63;;
47599;SDS011;33323;52.124;6.018;2023-08-12T14:28:03;3.10;;;0.95;;
47599;SDS011;33323;52.124;6.018;2023-08-12T14:30:31;6.38;;;1.38;;
47599;SDS011;33323;52.124;6.018;2023-08-12T14:32:58;6.15;;;0.80;;
47599;SDS011;33323;52.124;6.018;2023-08-12T14:35:25;11.88;;;1.45;;
47599;SDS011;33323;52.124;6.018;2023-08-12T14:37:52;3.38;;;1.20;;
47599;SDS011;33323;52.124;6.018;2023-08-12T14:40:19;7.75;;;0.90;;
47599;SDS011;33323;52.124;6.018;2023-08-12T14:42:46;6.30;;;1.42;;
47599;SDS011;33323;52.124;6.018;2023-08-12T14:45:13;6.05;;;1.02;;
47599;SDS011;33323;52.124;6.018;2023-08-12T14:47:41;4.82;;;1.13;;
47599;SDS011;33323;52.124;6.018;2023-08-12T14:50:08;3.55;;;1.00;;
47599;SDS011;33323;52.124;6.018;2023-08-12T14:52:36;4.68;;;1.10;;
47599;SDS011;33323;52.124;6.018;2023-08-12T14:55:03;3.40;;;1.20;;
47599;SDS011;33323;52.124;6.018;2023-08-12T14:57:31;3.67;;;1.00;;
47599;SDS011;33323;52.124;6.018;2023-08-12T14:59:58;8.45;;;1.45;;
47599;SDS011;33323;52.124;6.018;2023-08-12T15:02:25;4.15;;;0.85;;
47599;SDS011;33323;52.124;6.018;2023-08-12T15:04:53;3.55;;;1.10;;
47599;SDS011;33323;52.124;6.018;2023-08-12T15:07:20;4.85;;;1.50;;